sensor_id;sensor_type;location;lat;lon;timestamp;pressure;altitude;pressure_sealevel;temperature;humidity
17764;BME280;22245;52.832;13.816;2023-04-22T00:01:40;101433.44;;;9.61;63.14
17764;BME280;22245;52.832;13.816;2023-04-22T00:05:03;101429.94;;;9.60;62.82
17764;BME280;22245;52.832;13.816;2023-04-22T00:08:25;101433.66;;;9.58;63.91
17764;BME280;22245;52.832;13.816;2023-04-22T00:11:47;101422.50;;;9.52;64.44
17764;BME280;22245;52.832;13.816;2023-04-22T00:15:11;101424.72;;;9.46;63.44
17764;BME280;22245;52.832;13.816;2023-04-22T00:18:33;101423.22;;;9.41;63.46
17764;BME280;22245;52.832;13.816;2023-04-22T00:21:55;101417.28;;;9.38;63.67
17764;BME280;22245;52.832;13.816;2023-04-22T00:25:17;101416.78;;;9.33;63.49
17764;BME280;22245;52.832;13.816;2023-04-22T00:28:39;101416.13;;;9.29;63.67
17764;BME280;22245;52.832;13.816;2023-04-22T00:32:03;101405.69;;;9.26;63.70
17764;BME280;22245;52.832;13.816;2023-04-22T00:35:25;101407.63;;;9.24;65.00
17764;BME280;22245;52.832;13.816;2023-04-22T00:38:48;101408.88;;;9.18;65.98
17764;BME280;22245;52.832;13.816;2023-04-22T00:42:12;101404.72;;;9.14;65.87
17764;BME280;22245;52.832;13.816;2023-04-22T00:45:35;101401.53;;;9.09;66.06
17764;BME280;22245;52.832;13.816;2023-04-22T00:48:59;101402.06;;;9.01;66.05
17764;BME280;22245;52.832;13.816;2023-04-22T00:52:21;101400.56;;;8.97;65.78
17764;BME280;22245;52.832;13.816;2023-04-22T00:55:43;101395.47;;;8.94;65.86
17764;BME280;22245;52.832;13.816;2023-04-22T00:59:06;101403.66;;;8.91;65.83
17764;BME280;22245;52.832;13.816;2023-04-22T01:02:29;101399.50;;;8.87;65.56
17764;BME280;22245;52.832;13.816;2023-04-22T01:05:53;101396.94;;;8.85;65.59
17764;BME280;22245;52.832;13.816;2023-04-22T01:09:15;101389.09;;;8.83;65.03
17764;BME280;22245;52.832;13.816;2023-04-22T01:12:39;101393.66;;;8.81;65.02
17764;BME280;22245;52.832;13.816;2023-04-22T01:16:01;101389.38;;;8.79;64.79
17764;BME280;22245;52.832;13.816;2023-04-22T01:19:23;101389.59;;;8.76;65.21
17764;BME280;22245;52.832;13.816;2023-04-22T01:22:47;101382.78;;;8.72;65.15
17764;BME280;22245;52.832;13.816;2023-04-22T01:26:12;101386.50;;;8.69;65.65
17764;BME280;22245;52.832;13.816;2023-04-22T01:29:34;101383.28;;;8.64;66.17
17764;BME280;22245;52.832;13.816;2023-04-22T01:32:57;101382.66;;;8.60;66.37
17764;BME280;22245;52.832;13.816;2023-04-22T01:36:21;101383.91;;;8.54;66.29
17764;BME280;22245;52.832;13.816;2023-04-22T01:39:43;101378.91;;;8.50;65.88
17764;BME280;22245;52.832;13.816;2023-04-22T01:43:06;101387.91;;;8.47;66.24
17764;BME280;22245;52.832;13.816;2023-04-22T01:46:29;101379.19;;;8.45;66.23
17764;BME280;22245;52.832;13.816;2023-04-22T01:49:50;101369.72;;;8.41;66.20
17764;BME280;22245;52.832;13.816;2023-04-22T01:53:12;101368.03;;;8.40;65.69
17764;BME280;22245;52.832;13.816;2023-04-22T01:56:34;101369.00;;;8.39;65.70
17764;BME280;22245;52.832;13.816;2023-04-22T01:59:57;101369.94;;;8.38;65.40
17764;BME280;22245;52.832;13.816;2023-04-22T02:03:19;101361.97;;;8.38;65.42
17764;BME280;22245;52.832;13.816;2023-04-22T02:06:41;101366.53;;;8.36;66.03
17764;BME280;22245;52.832;13.816;2023-04-22T02:10:03;101356.88;;;8.35;65.57
17764;BME280;22245;52.832;13.816;2023-04-22T02:13:26;101348.91;;;8.35;65.62
17764;BME280;22245;52.832;13.816;2023-04-22T02:16:49;101353.16;;;8.37;64.98
17764;BME280;22245;52.832;13.816;2023-04-22T02:20:11;101349.34;;;8.42;64.56
17764;BME280;22245;52.832;13.816;2023-04-22T02:23:34;101343.72;;;8.46;64.49
17764;BME280;22245;52.832;13.816;2023-04-22T02:26:57;101341.72;;;8.50;64.19
17764;BME280;22245;52.832;13.816;2023-04-22T02:30:20;101341.34;;;8.56;63.46
17764;BME280;22245;52.832;13.816;2023-04-22T02:33:43;101334.53;;;8.65;62.87
17764;BME280;22245;52.832;13.816;2023-04-22T02:37:07;101335.00;;;8.72;62.58
17764;BME280;22245;52.832;13.816;2023-04-22T02:40:28;101326.72;;;8.76;62.70
17764;BME280;22245;52.832;13.816;2023-04-22T02:43:51;101322.91;;;8.80;61.97
17764;BME280;22245;52.832;13.816;2023-04-22T02:47:13;101317.16;;;8.87;61.44
17764;BME280;22245;52.832;13.816;2023-04-22T02:50:37;101318.63;;;8.91;61.70
17764;BME280;22245;52.832;13.816;2023-04-22T02:54:00;101316.72;;;8.93;61.47
17764;BME280;22245;52.832;13.816;2023-04-22T02:57:24;101306.97;;;8.93;61.21
17764;BME280;22245;52.832;13.816;2023-04-22T03:00:46;101308.66;;;8.94;60.96
17764;BME280;22245;52.832;13.816;2023-04-22T03:04:07;101315.25;;;9.02;61.34
17764;BME280;22245;52.832;13.816;2023-04-22T03:07:33;101316.00;;;9.04;61.26
17764;BME280;22245;52.832;13.816;2023-04-22T03:10:55;101300.66;;;9.07;61.38
17764;BME280;22245;52.832;13.816;2023-04-22T03:14:17;101307.59;;;9.10;61.33
17764;BME280;22245;52.832;13.816;2023-04-22T03:17:38;101303.22;;;9.09;61.36
17764;BME280;22245;52.832;13.816;2023-04-22T03:21:04;101304.84;;;9.11;61.24
17764;BME280;22245;52.832;13.816;2023-04-22T03:24:28;101303.88;;;9.12;60.83
17764;BME280;22245;52.832;13.816;2023-04-22T03:27:55;101294.72;;;9.17;61.02
17764;BME280;22245;52.832;13.816;2023-04-22T03:31:17;101290.97;;;9.19;61.64
17764;BME280;22245;52.832;13.816;2023-04-22T03:34:40;101294.59;;;9.18;61.92
17764;BME280;22245;52.832;13.816;2023-04-22T03:38:02;101301.63;;;9.19;61.59
17764;BME280;22245;52.832;13.816;2023-04-22T03:41:28;101302.47;;;9.20;61.32
17764;BME280;22245;52.832;13.816;2023-04-22T03:44:50;101303.53;;;9.17;61.33
17764;BME280;22245;52.832;13.816;2023-04-22T03:48:17;101308.00;;;9.17;61.48
17764;BME280;22245;52.832;13.816;2023-04-22T03:51:42;101303.53;;;9.17;61.37
17764;BME280;22245;52.832;13.816;2023-04-22T03:55:09;101299.09;;;9.18;62.22
17764;BME280;22245;52.832;13.816;2023-04-22T03:58:34;101301.84;;;9.16;62.33
17764;BME280;22245;52.832;13.816;2023-04-22T04:01:59;101299.31;;;9.15;62.54
17764;BME280;22245;52.832;13.816;2023-04-22T04:05:22;101304.94;;;9.10;63.10
17764;BME280;22245;52.832;13.816;2023-04-22T04:08:45;101314.16;;;9.04;63.19
17764;BME280;22245;52.832;13.816;2023-04-22T04:12:07;101314.38;;;9.01;63.37
17764;BME280;22245;52.832;13.816;2023-04-22T04:15:36;101306.00;;;8.94;63.30
17764;BME280;22245;52.832;13.816;2023-04-22T04:18:59;101309.19;;;8.87;63.11
17764;BME280;22245;52.832;13.816;2023-04-22T04:22:22;101312.28;;;8.80;64.07
17764;BME280;22245;52.832;13.816;2023-04-22T04:25:49;101311.84;;;8.74;64.25
17764;BME280;22245;52.832;13.816;2023-04-22T04:29:12;101303.22;;;8.70;64.07
17764;BME280;22245;52.832;13.816;2023-04-22T04:32:42;101305.88;;;8.70;63.78
17764;BME280;22245;52.832;13.816;2023-04-22T04:36:08;101302.06;;;8.74;63.71
17764;BME280;22245;52.832;13.816;2023-04-22T04:39:31;101300.16;;;8.76;63.42
17764;BME280;22245;52.832;13.816;2023-04-22T04:42:54;101304.31;;;8.80;63.71
17764;BME280;22245;52.832;13.816;2023-04-22T04:46:21;101299.53;;;8.86;63.31
17764;BME280;22245;52.832;13.816;2023-04-22T04:49:45;101305.06;;;8.95;63.30
17764;BME280;22245;52.832;13.816;2023-04-22T04:53:09;101302.78;;;9.02;63.03
17764;BME280;22245;52.832;13.816;2023-04-22T04:56:34;101311.28;;;9.07;62.90
17764;BME280;22245;52.832;13.816;2023-04-22T04:59:56;101313.53;;;9.14;63.50
17764;BME280;22245;52.832;13.816;2023-04-22T05:03:19;101312.38;;;9.18;62.99
17764;BME280;22245;52.832;13.816;2023-04-22T05:06:43;101309.28;;;9.24;63.06
17764;BME280;22245;52.832;13.816;2023-04-22T05:10:07;101309.69;;;9.31;63.15
17764;BME280;22245;52.832;13.816;2023-04-22T05:13:30;101308.41;;;9.36;62.74
17764;BME280;22245;52.832;13.816;2023-04-22T05:16:52;101312.53;;;9.40;62.72
17764;BME280;22245;52.832;13.816;2023-04-22T05:20:14;101307.94;;;9.43;62.77
17764;BME280;22245;52.832;13.816;2023-04-22T05:23:38;101304.88;;;9.49;62.85
17764;BME280;22245;52.832;13.816;2023-04-22T05:27:00;101297.50;;;9.52;63.28
17764;BME280;22245;52.832;13.816;2023-04-22T05:30:24;101297.50;;;9.52;62.78
17764;BME280;22245;52.832;13.816;2023-04-22T05:33:45;101297.94;;;9.59;62.91
17764;BME280;22245;52.832;13.816;2023-04-22T05:37:08;101289.00;;;9.60;63.06
17764;BME280;22245;52.832;13.816;2023-04-22T06:00:50;101294.78;;;10.03;62.42
17764;BME280;22245;52.832;13.816;2023-04-22T06:04:31;101291.44;;;10.12;62.77
17764;BME280;22245;52.832;13.816;2023-04-22T06:07:57;101294.34;;;10.20;62.74
17764;BME280;22245;52.832;13.816;2023-04-22T06:11:19;101298.28;;;10.27;62.20
17764;BME280;22245;52.832;13.816;2023-04-22T06:14:41;101290.88;;;10.31;62.61
17764;BME280;22245;52.832;13.816;2023-04-22T06:18:04;101291.53;;;10.35;62.53
17764;BME280;22245;52.832;13.816;2023-04-22T06:21:26;101292.06;;;10.40;62.68
17764;BME280;22245;52.832;13.816;2023-04-22T06:24:49;101291.47;;;10.48;62.44
17764;BME280;22245;52.832;13.816;2023-04-22T06:28:10;101294.63;;;10.53;62.50
17764;BME280;22245;52.832;13.816;2023-04-22T06:31:33;101295.75;;;10.62;61.34
17764;BME280;22245;52.832;13.816;2023-04-22T06:34:56;101290.28;;;10.63;61.88
17764;BME280;22245;52.832;13.816;2023-04-22T06:38:18;101291.28;;;10.74;61.83
17764;BME280;22245;52.832;13.816;2023-04-22T06:42:15;101296.63;;;10.85;61.50
17764;BME280;22245;52.832;13.816;2023-04-22T06:46:00;101294.81;;;10.97;60.95
17764;BME280;22245;52.832;13.816;2023-04-22T06:49:53;101291.56;;;11.05;60.88
17764;BME280;22245;52.832;13.816;2023-04-22T06:53:28;101292.50;;;11.15;60.51
17764;BME280;22245;52.832;13.816;2023-04-22T06:56:50;101292.88;;;11.22;60.42
17764;BME280;22245;52.832;13.816;2023-04-22T07:00:13;101293.00;;;11.32;61.49
17764;BME280;22245;52.832;13.816;2023-04-22T07:03:35;101291.44;;;11.40;60.72
17764;BME280;22245;52.832;13.816;2023-04-22T07:07:01;101285.34;;;11.50;60.26
17764;BME280;22245;52.832;13.816;2023-04-22T07:10:25;101273.22;;;11.57;59.80
17764;BME280;22245;52.832;13.816;2023-04-22T07:14:05;101267.84;;;11.68;60.53
17764;BME280;22245;52.832;13.816;2023-04-22T07:17:27;101260.78;;;11.79;59.72
17764;BME280;22245;52.832;13.816;2023-04-22T07:33:23;101270.78;;;12.30;58.54
17764;BME280;22245;52.832;13.816;2023-04-22T07:36:46;101273.53;;;12.40;59.27
17764;BME280;22245;52.832;13.816;2023-04-22T07:40:08;101273.59;;;12.50;58.48
17764;BME280;22245;52.832;13.816;2023-04-22T07:43:33;101274.38;;;12.62;58.28
17764;BME280;22245;52.832;13.816;2023-04-22T07:46:55;101262.19;;;12.69;58.32
17764;BME280;22245;52.832;13.816;2023-04-22T07:50:18;101264.78;;;12.81;57.73
17764;BME280;22245;52.832;13.816;2023-04-22T07:53:40;101270.03;;;12.92;57.46
17764;BME280;22245;52.832;13.816;2023-04-22T07:57:02;101263.03;;;13.01;56.93
17764;BME280;22245;52.832;13.816;2023-04-22T08:00:24;101256.47;;;13.15;56.68
17764;BME280;22245;52.832;13.816;2023-04-22T08:03:46;101254.78;;;13.24;56.51
17764;BME280;22245;52.832;13.816;2023-04-22T08:07:10;101254.56;;;13.37;55.85
17764;BME280;22245;52.832;13.816;2023-04-22T08:10:51;101250.97;;;13.48;56.26
17764;BME280;22245;52.832;13.816;2023-04-22T08:14:13;101243.66;;;13.59;56.18
17764;BME280;22245;52.832;13.816;2023-04-22T08:17:34;101243.41;;;13.72;55.72
17764;BME280;22245;52.832;13.816;2023-04-22T08:20:56;101237.06;;;13.83;55.30
17764;BME280;22245;52.832;13.816;2023-04-22T08:24:20;101245.94;;;13.94;55.08
17764;BME280;22245;52.832;13.816;2023-04-22T08:27:41;101231.56;;;14.04;54.84
17764;BME280;22245;52.832;13.816;2023-04-22T08:31:03;101237.47;;;14.18;54.77
17764;BME280;22245;52.832;13.816;2023-04-22T08:34:26;101227.28;;;14.31;55.08
17764;BME280;22245;52.832;13.816;2023-04-22T08:37:47;101230.94;;;14.40;53.42
17764;BME280;22245;52.832;13.816;2023-04-22T08:49:03;101214.66;;;14.81;53.16
17764;BME280;22245;52.832;13.816;2023-04-22T08:52:25;101213.59;;;14.92;53.91
17764;BME280;22245;52.832;13.816;2023-04-22T08:55:48;101201.81;;;15.03;53.85
17764;BME280;22245;52.832;13.816;2023-04-22T08:59:11;101201.34;;;15.17;52.65
17764;BME280;22245;52.832;13.816;2023-04-22T09:02:33;101213.69;;;15.28;52.00
17764;BME280;22245;52.832;13.816;2023-04-22T09:06:00;101197.53;;;15.38;52.54
17764;BME280;22245;52.832;13.816;2023-04-22T09:09:24;101206.03;;;15.52;51.86
17764;BME280;22245;52.832;13.816;2023-04-22T09:12:47;101209.22;;;15.65;51.79
17764;BME280;22245;52.832;13.816;2023-04-22T09:16:09;101203.78;;;15.75;51.80
17764;BME280;22245;52.832;13.816;2023-04-22T09:19:31;101206.34;;;15.85;50.64
17764;BME280;22245;52.832;13.816;2023-04-22T09:30:37;101195.41;;;16.14;51.25
17764;BME280;22245;52.832;13.816;2023-04-22T09:33:59;101194.44;;;16.24;50.65
17764;BME280;22245;52.832;13.816;2023-04-22T09:37:23;101189.34;;;16.39;50.58
17764;BME280;22245;52.832;13.816;2023-04-22T09:41:07;101183.34;;;16.53;50.02
17764;BME280;22245;52.832;13.816;2023-04-22T09:44:32;101174.50;;;16.61;49.07
17764;BME280;22245;52.832;13.816;2023-04-22T09:47:59;101171.53;;;16.72;49.70
17764;BME280;22245;52.832;13.816;2023-04-22T09:51:21;101172.09;;;16.84;49.74
17764;BME280;22245;52.832;13.816;2023-04-22T09:54:47;101172.63;;;16.96;49.06
17764;BME280;22245;52.832;13.816;2023-04-22T09:58:12;101154.53;;;17.06;47.17
17764;BME280;22245;52.832;13.816;2023-04-22T10:01:35;101149.00;;;17.16;46.00
17764;BME280;22245;52.832;13.816;2023-04-22T10:05:01;101150.72;;;17.26;45.69
17764;BME280;22245;52.832;13.816;2023-04-22T10:08:23;101157.78;;;17.35;45.80
17764;BME280;22245;52.832;13.816;2023-04-22T10:11:45;101139.81;;;17.44;44.43
17764;BME280;22245;52.832;13.816;2023-04-22T10:15:08;101135.09;;;17.54;42.67
17764;BME280;22245;52.832;13.816;2023-04-22T10:18:31;101139.31;;;17.65;44.75
17764;BME280;22245;52.832;13.816;2023-04-22T10:21:56;101128.84;;;17.78;41.38
17764;BME280;22245;52.832;13.816;2023-04-22T10:25:20;101127.00;;;17.87;40.97
17764;BME280;22245;52.832;13.816;2023-04-22T10:28:43;101121.25;;;17.99;40.96
17764;BME280;22245;52.832;13.816;2023-04-22T10:32:05;101115.72;;;18.08;41.94
17764;BME280;22245;52.832;13.816;2023-04-22T10:35:30;101118.91;;;18.20;38.98
17764;BME280;22245;52.832;13.816;2023-04-22T10:39:15;101106.41;;;18.28;39.61
17764;BME280;22245;52.832;13.816;2023-04-22T10:42:39;101104.88;;;18.33;39.10
17764;BME280;22245;52.832;13.816;2023-04-22T10:46:01;101109.41;;;18.41;39.42
17764;BME280;22245;52.832;13.816;2023-04-22T10:49:24;101100.06;;;18.52;38.66
17764;BME280;22245;52.832;13.816;2023-04-22T10:52:48;101101.91;;;18.60;40.16
17764;BME280;22245;52.832;13.816;2023-04-22T10:56:16;101081.78;;;18.71;39.86
17764;BME280;22245;52.832;13.816;2023-04-22T10:59:41;101080.56;;;18.82;38.99
17764;BME280;22245;52.832;13.816;2023-04-22T11:03:25;101077.97;;;18.88;39.22
17764;BME280;22245;52.832;13.816;2023-04-22T11:07:12;101079.66;;;18.98;40.18
17764;BME280;22245;52.832;13.816;2023-04-22T11:10:37;101063.41;;;19.06;39.27
17764;BME280;22245;52.832;13.816;2023-04-22T11:14:05;101063.50;;;19.13;38.67
17764;BME280;22245;52.832;13.816;2023-04-22T11:21:14;101069.31;;;19.24;37.22
17764;BME280;22245;52.832;13.816;2023-04-22T11:24:37;101063.41;;;19.29;38.41
17764;BME280;22245;52.832;13.816;2023-04-22T11:27:59;101060.81;;;19.36;38.40
17764;BME280;22245;52.832;13.816;2023-04-22T11:31:22;101056.38;;;19.43;37.34
17764;BME280;22245;52.832;13.816;2023-04-22T11:34:44;101054.59;;;19.50;37.79
17764;BME280;22245;52.832;13.816;2023-04-22T11:38:05;101052.84;;;19.58;36.98
17764;BME280;22245;52.832;13.816;2023-04-22T11:41:27;101047.44;;;19.58;37.25
17764;BME280;22245;52.832;13.816;2023-04-22T11:44:50;101033.56;;;19.61;36.81
17764;BME280;22245;52.832;13.816;2023-04-22T11:48:13;101041.78;;;19.67;37.48
17764;BME280;22245;52.832;13.816;2023-04-22T11:51:36;101044.59;;;19.74;37.51
17764;BME280;22245;52.832;13.816;2023-04-22T11:54:58;101035.91;;;19.79;36.61
17764;BME280;22245;52.832;13.816;2023-04-22T11:58:23;101053.44;;;19.83;36.63
17764;BME280;22245;52.832;13.816;2023-04-22T12:01:46;101049.34;;;19.87;36.48
17764;BME280;22245;52.832;13.816;2023-04-22T12:05:10;101040.53;;;19.93;36.72
17764;BME280;22245;52.832;13.816;2023-04-22T12:08:33;101036.72;;;20.03;36.57
17764;BME280;22245;52.832;13.816;2023-04-22T12:11:56;101035.78;;;20.10;36.05
17764;BME280;22245;52.832;13.816;2023-04-22T12:15:17;101030.28;;;20.19;35.40
17764;BME280;22245;52.832;13.816;2023-04-22T12:18:41;101024.28;;;20.23;35.40
17764;BME280;22245;52.832;13.816;2023-04-22T12:22:09;101010.38;;;20.27;35.74
17764;BME280;22245;52.832;13.816;2023-04-22T12:25:31;101017.94;;;20.31;35.65
17764;BME280;22245;52.832;13.816;2023-04-22T12:28:55;101003.88;;;20.36;35.98
17764;BME280;22245;52.832;13.816;2023-04-22T12:32:17;101000.56;;;20.41;34.61
17764;BME280;22245;52.832;13.816;2023-04-22T12:35:39;100993.09;;;20.43;35.06
17764;BME280;22245;52.832;13.816;2023-04-22T12:39:02;100997.13;;;20.47;35.28
17764;BME280;22245;52.832;13.816;2023-04-22T12:42:23;100991.97;;;20.52;33.75
17764;BME280;22245;52.832;13.816;2023-04-22T12:45:45;100977.03;;;20.56;33.86
17764;BME280;22245;52.832;13.816;2023-04-22T12:49:08;100978.13;;;20.62;34.20
17764;BME280;22245;52.832;13.816;2023-04-22T12:52:32;100987.34;;;20.67;35.00
17764;BME280;22245;52.832;13.816;2023-04-22T12:55:55;100974.53;;;20.76;34.84
17764;BME280;22245;52.832;13.816;2023-04-22T12:59:18;100975.28;;;20.85;34.01
17764;BME280;22245;52.832;13.816;2023-04-22T13:02:41;100979.06;;;20.91;33.90
17764;BME280;22245;52.832;13.816;2023-04-22T13:06:03;100966.16;;;20.93;33.52
17764;BME280;22245;52.832;13.816;2023-04-22T13:09:25;100964.72;;;20.90;32.61
17764;BME280;22245;52.832;13.816;2023-04-22T13:12:48;100953.66;;;20.92;32.69
17764;BME280;22245;52.832;13.816;2023-04-22T13:16:10;100950.38;;;20.96;33.25
17764;BME280;22245;52.832;13.816;2023-04-22T13:19:32;100949.53;;;20.96;33.04
17764;BME280;22245;52.832;13.816;2023-04-22T13:22:54;100944.19;;;21.03;32.70
17764;BME280;22245;52.832;13.816;2023-04-22T13:26:16;100937.16;;;21.08;32.31
17764;BME280;22245;52.832;13.816;2023-04-22T13:29:40;100945.53;;;21.14;31.96
17764;BME280;22245;52.832;13.816;2023-04-22T13:33:02;100936.78;;;21.18;32.62
17764;BME280;22245;52.832;13.816;2023-04-22T13:36:24;100932.69;;;21.22;32.47
17764;BME280;22245;52.832;13.816;2023-04-22T13:39:47;100940.41;;;21.25;33.36
17764;BME280;22245;52.832;13.816;2023-04-22T13:43:09;100936.06;;;21.31;33.08
17764;BME280;22245;52.832;13.816;2023-04-22T13:46:32;100930.06;;;21.36;31.81
17764;BME280;22245;52.832;13.816;2023-04-22T13:49:53;100926.16;;;21.45;32.14
17764;BME280;22245;52.832;13.816;2023-04-22T13:53:15;100920.31;;;21.48;32.63
17764;BME280;22245;52.832;13.816;2023-04-22T13:56:37;100923.28;;;21.53;32.27
17764;BME280;22245;52.832;13.816;2023-04-22T13:59:59;100913.13;;;21.62;31.24
17764;BME280;22245;52.832;13.816;2023-04-22T14:03:32;100903.94;;;21.63;31.66
17764;BME280;22245;52.832;13.816;2023-04-22T14:06:54;100904.84;;;21.71;32.17
17764;BME280;22245;52.832;13.816;2023-04-22T14:10:16;100910.94;;;21.79;32.20
17764;BME280;22245;52.832;13.816;2023-04-22T14:13:39;100902.00;;;21.86;31.03
17764;BME280;22245;52.832;13.816;2023-04-22T14:17:01;100895.94;;;21.83;30.23
17764;BME280;22245;52.832;13.816;2023-04-22T14:20:25;100891.38;;;21.91;30.93
17764;BME280;22245;52.832;13.816;2023-04-22T14:23:46;100871.78;;;21.95;30.72
17764;BME280;22245;52.832;13.816;2023-04-22T14:27:08;100882.41;;;21.97;30.45
17764;BME280;22245;52.832;13.816;2023-04-22T14:30:31;100879.97;;;22.02;30.34
17764;BME280;22245;52.832;13.816;2023-04-22T14:33:53;100879.13;;;22.08;30.93
17764;BME280;22245;52.832;13.816;2023-04-22T14:37:16;100879.53;;;22.12;30.36
17764;BME280;22245;52.832;13.816;2023-04-22T14:40:38;100868.94;;;22.17;33.29
17764;BME280;22245;52.832;13.816;2023-04-22T14:44:00;100864.38;;;22.24;30.39
17764;BME280;22245;52.832;13.816;2023-04-22T14:47:21;100855.78;;;22.34;31.99
17764;BME280;22245;52.832;13.816;2023-04-22T14:50:43;100864.81;;;22.68;29.81
17764;BME280;22245;52.832;13.816;2023-04-22T14:54:06;100852.81;;;24.03;29.88
17764;BME280;22245;52.832;13.816;2023-04-22T14:57:28;100849.78;;;25.19;25.66
17764;BME280;22245;52.832;13.816;2023-04-22T15:00:49;100845.34;;;25.93;24.01
17764;BME280;22245;52.832;13.816;2023-04-22T15:04:11;100848.38;;;26.46;25.34
17764;BME280;22245;52.832;13.816;2023-04-22T15:07:34;100851.53;;;26.85;24.83
17764;BME280;22245;52.832;13.816;2023-04-22T15:10:56;100843.19;;;26.80;24.15
17764;BME280;22245;52.832;13.816;2023-04-22T15:14:19;100834.06;;;26.86;24.46
17764;BME280;22245;52.832;13.816;2023-04-22T15:17:41;100832.13;;;26.75;23.86
17764;BME280;22245;52.832;13.816;2023-04-22T15:21:04;100827.09;;;26.24;25.14
17764;BME280;22245;52.832;13.816;2023-04-22T15:24:29;100834.19;;;25.64;26.01
17764;BME280;22245;52.832;13.816;2023-04-22T15:27:52;100823.22;;;25.14;26.58
17764;BME280;22245;52.832;13.816;2023-04-22T15:31:16;100831.78;;;24.74;26.12
17764;BME280;22245;52.832;13.816;2023-04-22T15:34:37;100816.13;;;24.44;27.48
17764;BME280;22245;52.832;13.816;2023-04-22T15:38:00;100819.41;;;24.21;26.66
17764;BME280;22245;52.832;13.816;2023-04-22T15:41:22;100815.34;;;24.05;26.26
17764;BME280;22245;52.832;13.816;2023-04-22T15:44:45;100808.91;;;23.92;28.49
17764;BME280;22245;52.832;13.816;2023-04-22T15:48:07;100812.53;;;23.79;29.20
17764;BME280;22245;52.832;13.816;2023-04-22T15:51:30;100804.44;;;23.66;28.18
17764;BME280;22245;52.832;13.816;2023-04-22T15:54:52;100813.69;;;23.58;28.61
17764;BME280;22245;52.832;13.816;2023-04-22T15:58:13;100802.88;;;23.45;27.07
17764;BME280;22245;52.832;13.816;2023-04-22T16:01:39;100801.22;;;23.44;29.56
17764;BME280;22245;52.832;13.816;2023-04-22T16:05:04;100802.69;;;23.39;27.85
17764;BME280;22245;52.832;13.816;2023-04-22T16:08:26;100799.97;;;23.39;28.22
17764;BME280;22245;52.832;13.816;2023-04-22T16:11:47;100795.34;;;23.40;28.83
17764;BME280;22245;52.832;13.816;2023-04-22T16:15:09;100795.34;;;23.40;28.17
17764;BME280;22245;52.832;13.816;2023-04-22T16:18:32;100793.69;;;23.39;29.42
17764;BME280;22245;52.832;13.816;2023-04-22T16:21:54;100783.72;;;23.19;29.66
17764;BME280;22245;52.832;13.816;2023-04-22T16:25:16;100781.22;;;23.24;28.94
17764;BME280;22245;52.832;13.816;2023-04-22T16:28:39;100775.34;;;23.27;29.42
17764;BME280;22245;52.832;13.816;2023-04-22T16:32:01;100769.91;;;23.27;29.49
17764;BME280;22245;52.832;13.816;2023-04-22T16:35:24;100769.28;;;23.25;29.03
17764;BME280;22245;52.832;13.816;2023-04-22T16:38:46;100760.09;;;23.20;28.32
17764;BME280;22245;52.832;13.816;2023-04-22T16:42:08;100762.19;;;23.18;28.62
17764;BME280;22245;52.832;13.816;2023-04-22T16:45:29;100756.34;;;23.14;29.06
17764;BME280;22245;52.832;13.816;2023-04-22T16:48:51;100760.75;;;23.08;29.08
17764;BME280;22245;52.832;13.816;2023-04-22T16:52:14;100757.00;;;23.03;29.73
17764;BME280;22245;52.832;13.816;2023-04-22T16:55:36;100739.47;;;22.98;30.49
17764;BME280;22245;52.832;13.816;2023-04-22T16:58:58;100739.47;;;22.92;30.67
17764;BME280;22245;52.832;13.816;2023-04-22T17:02:20;100737.44;;;22.87;31.11
17764;BME280;22245;52.832;13.816;2023-04-22T17:05:42;100729.72;;;22.84;31.88
17764;BME280;22245;52.832;13.816;2023-04-22T17:09:05;100730.75;;;22.76;32.13
17764;BME280;22245;52.832;13.816;2023-04-22T17:12:27;100731.00;;;22.68;32.38
17764;BME280;22245;52.832;13.816;2023-04-22T17:15:50;100733.94;;;22.60;32.59
17764;BME280;22245;52.832;13.816;2023-04-22T17:19:12;100741.03;;;22.47;32.81
17764;BME280;22245;52.832;13.816;2023-04-22T17:22:34;100738.31;;;22.40;32.50
17764;BME280;22245;52.832;13.816;2023-04-22T17:25:57;100742.50;;;22.30;33.27
17764;BME280;22245;52.832;13.816;2023-04-22T17:29:19;100740.59;;;22.17;33.17
17764;BME280;22245;52.832;13.816;2023-04-22T17:32:42;100738.53;;;22.05;33.42
17764;BME280;22245;52.832;13.816;2023-04-22T17:36:04;100736.22;;;21.95;33.28
17764;BME280;22245;52.832;13.816;2023-04-22T17:39:26;100731.19;;;21.86;32.97
17764;BME280;22245;52.832;13.816;2023-04-22T17:42:49;100732.84;;;21.73;33.86
17764;BME280;22245;52.832;13.816;2023-04-22T17:46:11;100734.66;;;21.59;33.94
17764;BME280;22245;52.832;13.816;2023-04-22T17:49:32;100737.75;;;21.43;34.31
17764;BME280;22245;52.832;13.816;2023-04-22T17:52:54;100738.09;;;21.26;34.79
17764;BME280;22245;52.832;13.816;2023-04-22T17:56:16;100736.38;;;21.11;35.12
17764;BME280;22245;52.832;13.816;2023-04-22T17:59:38;100743.16;;;20.94;36.13
17764;BME280;22245;52.832;13.816;2023-04-22T18:03:01;100741.56;;;20.78;36.42
17764;BME280;22245;52.832;13.816;2023-04-22T18:06:24;100739.19;;;20.61;36.84
17764;BME280;22245;52.832;13.816;2023-04-22T18:09:48;100740.13;;;20.47;37.61
17764;BME280;22245;52.832;13.816;2023-04-22T18:13:10;100752.25;;;20.29;38.00
17764;BME280;22245;52.832;13.816;2023-04-22T18:16:33;100753.56;;;20.12;37.99
17764;BME280;22245;52.832;13.816;2023-04-22T18:19:54;100752.38;;;19.92;38.52
17764;BME280;22245;52.832;13.816;2023-04-22T18:23:36;100754.19;;;19.70;39.45
17764;BME280;22245;52.832;13.816;2023-04-22T18:26:58;100760.81;;;19.52;39.81